Piedmont, KS (67122)

4:04 PM CST on December 20, 2014 (GMT -0600)
Col Jabara | Change Station
CLOSE
Current Station
Airport
Location: Wichita Jabara,
Elevation: 1421 ft
Nearby Weather Stations

Elev 1421 ft 37.75 °N, 97.22 °W | Updated 10 minutes ago

Partly Cloudy
Partly Cloudy
46 °F
Feels Like 39 °F
N
17
Wind Variable Wind from SSW
Gusts 24 mph

Today
High -- | Low -- °F
--% Chance of Precip.
Yesterday
High -- | Low -- °F
Precip. -- in
7:36 AM 5:10 PM
Waning Crescent, 2% visible
Pressure 30.12 in
Visibility 10.0 miles
Clouds Mostly Cloudy 2500 ft
Windchill 39 °F
Dew Point 36 °F
Humidity 68%
Rainfall 0.00 in
Snow Depth Not available.
UV 0 out of 12
Pollen .10 out of 12
Air Quality Not available.
Flu Activity Not available.
METAR KAAO 202154Z AUTO 21015G21KT 10SM BKN025 08/02 A3009 RMK AO2 SLP200 T00780022

More Conditions Fewer Conditions

Pressure 30.12 in
Visibility 10.0 miles
Clouds Mostly Cloudy 2500 ft
Windchill 39 °F
Dew Point 36 °F
Humidity 68%
Rainfall 0.00 in
Snow Depth Not available.
UV 0 out of 12
Pollen .10 out of 12
Air Quality Not available.
Flu Activity Not available.
METAR KAAO 202154Z AUTO 21015G21KT 10SM BKN025 08/02 A3009 RMK AO2 SLP200 T00780022

More Conditions Fewer Conditions

10-Day Weather Forecast

Almanac

Astronomy

Dec. 20, 2014 Rise Set
Actual Time
Civil Twilight
Nautical Twilight
Astronomical Twilight
Moon
Length of Visible Light
Length of Day
Tomorrow will be .
, % of the Moon is Illuminated

Today's Extremes

State Highs State Lows

Community

WunderPhotos

Upload Photos

1,779,288 photos uploaded!

WunderBlogs® & News

Nearby

Air Quality

  Air Quality AQ Index Pollutant
Not available.

Snow Depth

Station Depth Elevation

Earthquake Activity

City Distance Mag. Time & Date
Minimum magnitude displayed is 2.5.

Coastal Water Temperatures

Place Temperature

Nearby Weather Stations